Time;durP1;ratioP1;P1;durP2;ratioP2;P2;SDS_P1;SDS_P2;PMS_P1;PMS_P2;Temp;Humidity;BMP_temperature;BMP_pressure;BME280_temperature;BME280_humidity;BME280_pressure;Samples;Min_cycle;Max_cycle;Signal;HPM_P1;HPM_P2
2021/05/08 00:02:05;;;;;;;8.47;6.67;;;;;;;7.43;54.41;96940.50;5032581;28;20191;-68
2021/05/08 00:04:31;;;;;;;8.57;6.70;;;;;;;7.42;54.25;96933.66;5033407;28;20432;-68
2021/05/08 00:06:58;;;;;;;8.93;7.53;;;;;;;7.42;54.23;96944.06;5033421;28;20470;-67
2021/05/08 00:09:24;;;;;;;10.60;7.60;;;;;;;7.33;54.64;96950.09;5033225;28;20373;-68
2021/05/08 00:11:53;;;;;;;12.13;7.53;;;;;;;7.34;54.75;96947.38;5033819;28;20456;-68
2021/05/08 00:14:19;;;;;;;9.00;7.07;;;;;;;7.37;54.78;96941.03;5033584;28;20211;-68
2021/05/08 00:16:44;;;;;;;9.47;7.57;;;;;;;7.36;54.73;96945.44;5033784;28;20667;-66
2021/05/08 00:19:10;;;;;;;7.97;6.93;;;;;;;7.38;54.82;96942.69;5033984;28;20216;-67
2021/05/08 00:21:35;;;;;;;8.47;6.13;;;;;;;7.39;54.58;96939.13;5047590;28;20195;-66
2021/05/08 00:24:01;;;;;;;7.53;6.50;;;;;;;7.43;54.68;96943.13;5033081;28;20222;-67
2021/05/08 00:26:27;;;;;;;7.83;6.73;;;;;;;7.38;54.47;96937.47;5032433;28;20278;-67
2021/05/08 00:28:52;;;;;;;9.17;6.97;;;;;;;7.33;54.74;96947.50;5033037;28;20187;-67
2021/05/08 00:31:18;;;;;;;8.23;7.43;;;;;;;7.27;55.35;96950.66;5033392;28;20206;-67
2021/05/08 00:33:44;;;;;;;8.00;6.70;;;;;;;7.29;55.09;96940.94;5033386;28;20190;-67
2021/05/08 00:36:10;;;;;;;8.17;6.30;;;;;;;7.23;55.32;96939.69;5036427;28;20929;-66
2021/05/08 00:38:35;;;;;;;7.57;6.33;;;;;;;7.26;55.02;96938.59;5035380;28;20183;-68
2021/05/08 00:41:01;;;;;;;7.80;6.70;;;;;;;7.25;54.64;96937.75;5035433;28;20203;-68
2021/05/08 00:43:26;;;;;;;11.33;6.63;;;;;;;7.23;54.85;96937.91;5036245;28;20179;-68
2021/05/08 00:45:52;;;;;;;7.13;6.30;;;;;;;7.21;54.88;96934.59;5034642;28;20231;-68
2021/05/08 00:48:18;;;;;;;7.67;6.67;;;;;;;7.18;54.98;96937.47;5034795;28;20559;-69
2021/05/08 00:50:44;;;;;;;7.70;6.57;;;;;;;7.14;54.75;96938.72;5048379;28;20184;-69
2021/05/08 00:53:09;;;;;;;7.23;6.53;;;;;;;7.12;55.15;96930.22;5034419;28;20187;-69
2021/05/08 00:55:36;;;;;;;7.70;6.90;;;;;;;7.17;55.17;96941.06;5031115;28;20203;-70
2021/05/08 00:58:05;;;;;;;9.70;5.93;;;;;;;7.18;54.60;96934.88;5031638;28;20250;-69
2021/05/08 01:00:31;;;;;;;8.90;6.80;;;;;;;7.19;54.81;96936.50;5032234;28;20519;-72
2021/05/08 01:02:57;;;;;;;6.67;5.73;;;;;;;7.17;54.40;96941.06;5032278;28;20937;-69
2021/05/08 01:05:22;;;;;;;9.90;6.63;;;;;;;7.20;54.65;96940.78;5031504;28;20200;-69
2021/05/08 01:07:48;;;;;;;7.30;5.50;;;;;;;7.18;54.58;96940.06;5032102;28;20226;-70
2021/05/08 01:10:14;;;;;;;7.47;5.80;;;;;;;7.20;53.92;96935.56;5031813;28;20274;-69
2021/05/08 01:12:41;;;;;;;7.77;6.20;;;;;;;7.22;54.10;96941.47;5030790;28;20196;-70
2021/05/08 01:15:09;;;;;;;7.17;6.23;;;;;;;7.21;54.31;96947.63;5030491;28;20427;-69
2021/05/08 01:17:35;;;;;;;9.30;6.43;;;;;;;7.19;54.25;96940.91;5031084;28;20434;-67
2021/05/08 01:20:01;;;;;;;7.57;6.20;;;;;;;7.20;54.24;96945.97;5031892;28;20458;-68
2021/05/08 01:22:26;;;;;;;10.30;6.07;;;;;;;7.21;54.04;96946.81;5029955;28;20538;-69
2021/05/08 01:24:52;;;;;;;6.80;6.10;;;;;;;7.22;53.79;96936.25;5030274;28;20191;-69
2021/05/08 01:27:18;;;;;;;6.97;6.07;;;;;;;7.21;53.70;96939.81;5030955;28;20290;-68
2021/05/08 01:29:43;;;;;;;7.30;5.60;;;;;;;7.19;53.82;96933.91;5032147;28;20192;-68
2021/05/08 01:32:09;;;;;;;6.53;5.83;;;;;;;7.20;53.54;96924.31;5051004;28;20614;-69
2021/05/08 01:34:34;;;;;;;6.97;5.83;;;;;;;7.21;53.10;96931.19;5049352;28;20191;-69
2021/05/08 01:37:02;;;;;;;7.90;5.60;;;;;;;7.18;53.07;96931.44;5035774;28;20203;-70
2021/05/08 01:39:27;;;;;;;8.30;6.00;;;;;;;7.16;53.17;96934.22;5032490;28;20231;-71
2021/05/08 01:41:53;;;;;;;7.80;6.10;;;;;;;7.19;53.18;96928.69;5031019;28;20507;-68
2021/05/08 01:44:19;;;;;;;8.00;5.50;;;;;;;7.23;52.46;96924.06;5032048;28;20600;-67
2021/05/08 01:46:44;;;;;;;6.77;5.60;;;;;;;7.22;52.99;96923.22;5032499;28;20219;-68
2021/05/08 01:49:10;;;;;;;6.60;5.47;;;;;;;7.18;52.82;96915.81;5035951;28;20179;-67
2021/05/08 01:51:35;;;;;;;8.37;6.40;;;;;;;7.16;52.79;96915.13;5036917;28;20580;-69
2021/05/08 01:54:01;;;;;;;5.10;4.60;;;;;;;7.11;52.79;96912.94;5036515;28;20187;-68
2021/05/08 01:56:27;;;;;;;5.43;4.90;;;;;;;7.05;52.79;96913.50;5032904;28;20207;-69
2021/05/08 01:58:52;;;;;;;7.60;5.77;;;;;;;6.99;52.90;96906.22;5032180;28;20187;-68
2021/05/08 02:01:18;;;;;;;5.87;5.27;;;;;;;6.96;53.19;96906.47;5031182;28;20242;-67
2021/05/08 02:03:43;;;;;;;6.80;5.57;;;;;;;6.91;53.31;96907.72;5031123;28;20558;-67
2021/05/08 02:06:09;;;;;;;7.50;5.50;;;;;;;6.84;54.06;96904.00;5031643;28;20290;-67
2021/05/08 02:08:35;;;;;;;7.60;6.00;;;;;;;6.86;54.27;96899.50;5046920;28;20577;-68
2021/05/08 02:11:00;;;;;;;7.97;5.90;;;;;;;6.89;54.20;96901.84;5030717;28;20545;-67
2021/05/08 02:13:26;;;;;;;7.57;5.63;;;;;;;6.88;54.29;96907.16;5031962;28;20245;-67
2021/05/08 02:15:52;;;;;;;7.33;6.10;;;;;;;6.84;54.14;96904.00;5031438;28;20222;-67
2021/05/08 02:18:17;;;;;;;7.27;5.40;;;;;;;6.78;54.56;96906.34;5031853;28;20263;-67
2021/05/08 02:20:44;;;;;;;6.40;5.60;;;;;;;6.73;55.43;96896.31;5030414;28;20211;-67
2021/05/08 02:23:12;;;;;;;6.87;5.67;;;;;;;6.55;55.04;96901.38;5033135;28;20674;-67
2021/05/08 02:25:38;;;;;;;8.67;6.47;;;;;;;6.59;55.09;96900.97;5035470;28;20450;-66
2021/05/08 02:28:04;;;;;;;10.00;6.10;;;;;;;6.61;54.72;96901.66;5034543;28;20521;-67
2021/05/08 02:30:32;;;;;;;7.33;6.37;;;;;;;6.54;55.11;96894.50;5034918;28;20653;-67
2021/05/08 02:32:58;;;;;;;7.40;6.23;;;;;;;6.47;55.50;96899.44;5037053;28;20438;-67
2021/05/08 02:35:25;;;;;;;8.83;6.67;;;;;;;6.47;56.11;96896.84;5038382;28;20499;-67
2021/05/08 02:37:52;;;;;;;11.47;7.37;;;;;;;6.43;56.31;96898.03;5034144;28;20430;-68
2021/05/08 02:40:21;;;;;;;12.50;7.47;;;;;;;6.41;56.55;96897.38;5034665;28;20530;-69
2021/05/08 02:42:47;;;;;;;8.23;6.63;;;;;;;6.36;56.60;96899.56;5035113;28;20437;-65
2021/05/08 02:45:13;;;;;;;10.37;7.57;;;;;;;6.36;56.47;96900.38;5034845;28;20427;-66
2021/05/08 02:47:43;;;;;;;8.30;7.33;;;;;;;6.35;56.83;96897.91;5034378;28;20427;-67
2021/05/08 02:50:10;;;;;;;7.40;6.63;;;;;;;6.34;56.68;96888.44;5034442;28;21037;-67
2021/05/08 02:52:36;;;;;;;8.00;7.00;;;;;;;6.30;56.41;96887.91;5034615;28;20430;-66
2021/05/08 02:55:03;;;;;;;8.47;7.07;;;;;;;6.29;56.75;96889.69;5050711;28;20423;-68
2021/05/08 02:57:29;;;;;;;10.40;6.97;;;;;;;6.26;56.78;96892.53;5034978;28;20275;-67
2021/05/08 02:59:55;;;;;;;7.97;6.53;;;;;;;6.27;56.98;96888.16;5034015;28;20549;-67
2021/05/08 03:02:21;;;;;;;7.97;6.77;;;;;;;6.28;56.95;96893.25;5049759;28;20237;-67
2021/05/08 03:04:50;;;;;;;8.87;6.50;;;;;;;6.22;56.82;96896.34;5033661;28;20206;-66
2021/05/08 03:07:15;;;;;;;8.67;6.37;;;;;;;6.17;57.32;96895.94;5032835;28;20916;-65
2021/05/08 03:09:43;;;;;;;8.60;7.03;;;;;;;6.17;57.11;96889.91;5034531;28;20184;-67
2021/05/08 03:12:08;;;;;;;7.87;6.10;;;;;;;6.20;56.90;96892.25;5050062;28;20215;-66
2021/05/08 03:14:34;;;;;;;7.17;6.47;;;;;;;6.22;56.88;96878.13;5034547;28;20433;-67
2021/05/08 03:17:00;;;;;;;9.27;6.87;;;;;;;6.20;56.76;96885.25;5034754;28;20214;-67
2021/05/08 03:19:25;;;;;;;9.20;6.80;;;;;;;6.17;56.66;96885.53;5033835;28;20576;-66
2021/05/08 03:21:51;;;;;;;9.70;6.47;;;;;;;6.20;57.10;96887.84;5033400;28;20256;-69
2021/05/08 03:24:17;;;;;;;9.17;6.90;;;;;;;6.13;56.98;96887.56;5034819;28;20223;-68
2021/05/08 03:26:42;;;;;;;7.77;6.47;;;;;;;6.11;57.34;96886.88;5029625;28;20207;-66
2021/05/08 03:29:08;;;;;;;7.63;6.30;;;;;;;6.15;57.12;96879.63;5037070;28;20261;-67
2021/05/08 03:31:34;;;;;;;8.83;7.10;;;;;;;6.14;57.14;96868.41;5030993;28;20187;-67
2021/05/08 03:34:00;;;;;;;8.87;6.37;;;;;;;6.11;57.06;96870.44;5032011;28;20450;-67
2021/05/08 03:36:26;;;;;;;13.43;6.93;;;;;;;6.05;57.61;96878.78;5033067;28;20584;-68
2021/05/08 03:38:51;;;;;;;7.53;5.70;;;;;;;6.01;56.83;96880.00;5033265;28;20195;-67
2021/05/08 03:41:17;;;;;;;15.23;6.37;;;;;;;6.11;56.73;96871.25;5040634;28;20591;-66
2021/05/08 03:43:43;;;;;;;11.57;6.17;;;;;;;6.18;56.86;96870.75;5033903;28;20195;-65
2021/05/08 03:46:08;;;;;;;6.33;5.33;;;;;;;6.23;56.49;96873.78;5031461;28;20294;-67
2021/05/08 03:48:34;;;;;;;6.63;4.60;;;;;;;6.25;55.93;96872.69;5033521;28;20191;-67
2021/05/08 03:50:59;;;;;;;8.30;5.20;;;;;;;6.27;56.28;96886.38;5033286;28;20572;-67
2021/05/08 03:53:25;;;;;;;6.30;5.03;;;;;;;6.33;55.65;96881.59;5034196;28;20267;-67
2021/05/08 03:55:52;;;;;;;6.50;5.47;;;;;;;6.37;56.14;96875.16;5033267;28;20204;-66
2021/05/08 03:58:27;;;;;;;8.60;5.63;;;;;;;6.39;55.71;96879.28;5031814;28;20214;-66
2021/05/08 04:00:53;;;;;;;9.33;5.70;;;;;;;6.43;55.77;96877.22;5046710;28;20485;-68
2021/05/08 04:03:18;;;;;;;10.63;5.40;;;;;;;6.42;55.71;96871.19;5033088;28;20454;-66
2021/05/08 04:05:44;;;;;;;9.10;5.43;;;;;;;6.43;55.29;96867.66;5033382;28;20459;-66
2021/05/08 04:08:10;;;;;;;8.10;5.60;;;;;;;6.43;55.44;96872.00;5033573;28;20184;-67
2021/05/08 04:10:36;;;;;;;6.77;4.83;;;;;;;6.46;55.34;96874.34;5034787;28;20220;-66
2021/05/08 04:13:01;;;;;;;6.30;5.30;;;;;;;6.47;55.31;96868.19;5033517;28;20426;-68
2021/05/08 04:15:27;;;;;;;9.70;5.50;;;;;;;6.50;55.38;96865.31;5032581;28;20227;-67
2021/05/08 04:17:52;;;;;;;7.60;4.93;;;;;;;6.57;55.37;96871.63;5031262;28;20195;-67
2021/05/08 04:20:18;;;;;;;5.40;4.80;;;;;;;6.63;54.92;96864.25;5010916;28;20205;-66
2021/05/08 04:22:44;;;;;;;12.70;4.67;;;;;;;6.68;54.87;96862.06;5030857;28;20198;-68
2021/05/08 04:25:10;;;;;;;5.10;4.60;;;;;;;6.60;55.26;96858.34;5033213;28;20218;-68
2021/05/08 04:27:36;;;;;;;10.37;4.27;;;;;;;6.68;54.79;96856.88;5034627;28;20287;-67
2021/05/08 04:30:02;;;;;;;4.70;4.30;;;;;;;6.66;54.69;96862.19;5032989;28;20422;-67
2021/05/08 04:32:27;;;;;;;5.53;4.90;;;;;;;6.71;55.05;96866.97;5032633;28;20184;-67
2021/05/08 04:34:53;;;;;;;9.30;4.60;;;;;;;6.83;54.72;96858.06;5030763;28;20465;-66
2021/05/08 04:37:18;;;;;;;5.33;4.77;;;;;;;6.89;54.51;96859.31;5032586;28;20223;-66
2021/05/08 04:39:44;;;;;;;7.00;5.40;;;;;;;6.98;54.03;96862.88;5032275;28;20334;-67
2021/05/08 04:42:10;;;;;;;5.70;4.47;;;;;;;7.11;53.79;96852.19;5032100;28;20187;-66
2021/05/08 04:44:35;;;;;;;5.43;4.60;;;;;;;7.18;53.88;96856.66;5032929;28;20200;-66
2021/05/08 04:47:01;;;;;;;7.53;4.43;;;;;;;7.19;53.80;96853.09;5031155;28;20969;-66
2021/05/08 04:49:27;;;;;;;6.37;5.07;;;;;;;7.27;53.51;96849.81;5033096;28;20184;-66
2021/05/08 04:51:55;;;;;;;5.87;4.40;;;;;;;7.40;53.35;96854.75;5032566;28;20192;-67
2021/05/08 04:54:21;;;;;;;5.10;4.60;;;;;;;7.48;53.07;96857.44;5032165;28;20246;-66
2021/05/08 04:56:47;;;;;;;5.80;4.80;;;;;;;7.58;53.45;96859.19;5033156;28;20454;-66
2021/05/08 04:59:13;;;;;;;7.57;4.73;;;;;;;7.64;53.14;96856.84;5038267;28;21027;-68
2021/05/08 05:01:39;;;;;;;6.60;5.10;;;;;;;7.63;52.78;96863.03;5032094;28;20427;-67
2021/05/08 05:04:04;;;;;;;13.43;5.30;;;;;;;7.70;52.74;96858.06;5033216;28;20180;-67
2021/05/08 05:06:30;;;;;;;7.97;5.60;;;;;;;7.81;52.91;96854.47;5032515;28;20294;-67
2021/05/08 05:08:55;;;;;;;7.80;4.70;;;;;;;7.90;52.52;96858.00;5035018;28;20179;-67
2021/05/08 05:11:22;;;;;;;6.27;4.80;;;;;;;7.70;52.51;96855.47;5032460;28;20223;-67
2021/05/08 05:13:51;;;;;;;5.80;4.60;;;;;;;7.70;52.14;96855.47;5033060;28;20253;-66
2021/05/08 05:16:17;;;;;;;4.77;4.27;;;;;;;7.71;52.42;96862.31;5032665;28;20508;-67
2021/05/08 05:18:43;;;;;;;8.20;5.10;;;;;;;7.83;51.94;96862.97;5032097;28;20952;-67
2021/05/08 05:21:08;;;;;;;5.43;4.93;;;;;;;8.01;52.16;96868.25;5031560;28;20518;-66
2021/05/08 05:23:34;;;;;;;9.97;6.40;;;;;;;8.12;51.95;96872.47;5032360;28;20187;-67
2021/05/08 05:26:00;;;;;;;7.10;4.80;;;;;;;8.32;51.09;96877.59;5030569;28;20199;-66
2021/05/08 05:28:30;;;;;;;35.10;14.43;;;;;;;8.43;50.16;96870.38;5031433;28;20176;-67
2021/05/08 05:30:57;;;;;;;12.60;6.37;;;;;;;8.63;50.17;96879.91;5032101;28;20183;-67
2021/05/08 05:33:23;;;;;;;7.23;4.73;;;;;;;8.79;49.67;96874.81;5030921;28;20427;-65
2021/05/08 05:35:50;;;;;;;8.10;4.50;;;;;;;8.92;49.37;96874.47;5032511;28;20475;-67
2021/05/08 05:38:16;;;;;;;7.73;4.57;;;;;;;9.10;49.45;96869.22;5031156;28;20477;-66
2021/05/08 05:40:43;;;;;;;5.97;3.93;;;;;;;9.27;48.67;96872.78;5030886;28;20549;-67
2021/05/08 05:43:09;;;;;;;5.70;4.10;;;;;;;9.35;48.17;96869.41;5031562;28;20429;-68
2021/05/08 05:45:34;;;;;;;6.50;4.20;;;;;;;9.41;48.05;96871.41;5031971;28;20454;-68
2021/05/08 05:48:04;;;;;;;7.87;4.87;;;;;;;9.59;48.15;96862.69;5031806;28;20431;-67
2021/05/08 05:50:31;;;;;;;7.00;4.90;;;;;;;9.79;47.95;96865.91;5031019;28;20180;-67
2021/05/08 05:52:56;;;;;;;5.97;4.27;;;;;;;10.03;46.94;96864.41;5031677;28;20419;-66
2021/05/08 05:55:23;;;;;;;6.40;4.67;;;;;;;10.03;46.51;96865.19;5031963;28;20499;-68
2021/05/08 05:57:50;;;;;;;6.90;3.90;;;;;;;10.06;45.99;96861.47;5033917;28;20190;-67
2021/05/08 06:00:17;;;;;;;5.23;4.47;;;;;;;10.11;45.69;96853.94;5038302;28;20541;-67
2021/05/08 06:02:43;;;;;;;5.30;4.30;;;;;;;10.17;45.30;96861.19;5038166;28;20430;-69
2021/05/08 06:05:09;;;;;;;5.30;4.80;;;;;;;10.49;45.25;96859.66;5038512;28;20424;-68
2021/05/08 06:07:34;;;;;;;5.50;4.17;;;;;;;10.67;45.04;96853.47;5053739;28;20184;-69
2021/05/08 06:10:00;;;;;;;7.03;4.60;;;;;;;10.70;44.34;96847.94;5038306;28;20410;-68
2021/05/08 06:12:26;;;;;;;7.53;5.10;;;;;;;11.00;43.94;96856.13;5054163;28;20226;-67
2021/05/08 06:14:51;;;;;;;5.87;3.97;;;;;;;10.73;42.96;96858.06;5041056;28;20429;-68
2021/05/08 06:17:17;;;;;;;3.63;3.33;;;;;;;10.94;42.64;96857.59;5038384;28;20203;-68
2021/05/08 06:19:42;;;;;;;5.87;3.70;;;;;;;11.21;42.56;96866.94;5036849;28;20681;-68
2021/05/08 06:22:08;;;;;;;5.60;3.63;;;;;;;11.43;42.06;96858.56;5038344;28;20191;-67
2021/05/08 06:24:34;;;;;;;4.67;4.17;;;;;;;11.51;42.57;96867.25;5038723;28;20830;-68
2021/05/08 06:26:59;;;;;;;11.43;4.30;;;;;;;11.57;42.72;96863.13;5039088;28;20203;-67
2021/05/08 06:29:25;;;;;;;8.87;4.53;;;;;;;11.79;41.96;96864.25;5054177;28;20234;-68
2021/05/08 06:31:51;;;;;;;5.40;4.53;;;;;;;11.92;42.19;96863.69;5039174;28;20270;-68
2021/05/08 06:34:16;;;;;;;6.90;4.03;;;;;;;12.09;42.02;96869.78;5038812;28;20294;-67
2021/05/08 06:36:42;;;;;;;4.83;4.00;;;;;;;12.14;41.72;96856.94;5037266;28;20208;-67
2021/05/08 06:39:07;;;;;;;5.50;3.60;;;;;;;12.32;40.67;96862.94;5038004;28;20183;-67
2021/05/08 06:41:33;;;;;;;4.40;3.90;;;;;;;12.51;40.85;96862.50;5037498;28;20709;-67
2021/05/08 06:43:59;;;;;;;5.80;4.03;;;;;;;12.52;40.71;96868.56;5037832;28;20238;-69
2021/05/08 06:46:24;;;;;;;3.93;3.53;;;;;;;12.50;39.58;96871.38;5037641;28;20204;-67
2021/05/08 06:48:51;;;;;;;5.87;3.87;;;;;;;12.78;41.20;96863.00;5038231;28;20210;-67
2021/05/08 06:51:16;;;;;;;4.20;3.80;;;;;;;12.95;40.41;96863.72;5038155;28;20178;-67
2021/05/08 06:53:42;;;;;;;5.50;4.03;;;;;;;13.03;40.18;96868.91;5037160;28;20803;-69
2021/05/08 06:56:08;;;;;;;4.90;4.27;;;;;;;13.28;40.29;96863.44;5039295;28;20207;-67
2021/05/08 06:58:34;;;;;;;4.33;3.90;;;;;;;13.20;40.53;96860.88;5038761;28;20183;-67
2021/05/08 07:00:59;;;;;;;4.70;3.97;;;;;;;13.30;40.23;96850.09;5032520;28;20260;-68
2021/05/08 07:03:25;;;;;;;5.60;4.00;;;;;;;13.45;40.37;96843.09;5037833;28;20186;-68
2021/05/08 07:05:50;;;;;;;5.87;3.97;;;;;;;13.71;39.70;96841.03;5037400;28;20234;-67
2021/05/08 07:08:16;;;;;;;12.60;5.30;;;;;;;13.62;40.09;96838.47;5039600;28;20191;-67
2021/05/08 07:10:46;;;;;;;14.93;7.93;;;;;;;13.73;39.94;96836.41;5033365;28;20192;-68
2021/05/08 07:13:12;;;;;;;7.37;5.20;;;;;;;13.77;40.13;96835.03;5034253;28;20205;-67
2021/05/08 07:15:38;;;;;;;11.13;6.53;;;;;;;13.83;40.25;96835.13;5034361;28;20447;-68
2021/05/08 07:18:05;;;;;;;6.60;5.30;;;;;;;13.80;40.22;96824.94;5033468;28;20752;-69
2021/05/08 07:20:32;;;;;;;11.00;7.43;;;;;;;14.32;39.76;96827.59;5034161;28;20222;-68
2021/05/08 07:22:57;;;;;;;4.73;4.33;;;;;;;14.52;39.09;96832.31;5033216;28;20525;-68
2021/05/08 07:25:23;;;;;;;8.13;5.37;;;;;;;14.97;38.55;96824.25;5033994;28;20600;-67
2021/05/08 07:27:49;;;;;;;13.70;5.03;;;;;;;15.23;37.61;96836.84;5035091;28;20655;-67
2021/05/08 07:30:15;;;;;;;7.00;4.87;;;;;;;15.43;37.41;96833.56;5035482;28;20431;-67
2021/05/08 07:32:40;;;;;;;8.30;3.80;;;;;;;15.61;35.46;96831.22;5036429;28;20237;-69
2021/05/08 07:35:07;;;;;;;5.63;3.73;;;;;;;15.26;34.87;96835.63;5039016;28;20430;-70
2021/05/08 07:37:33;;;;;;;5.93;3.37;;;;;;;15.46;34.53;96828.69;5038322;28;20183;-70
2021/05/08 07:39:59;;;;;;;5.67;3.30;;;;;;;15.05;34.46;96837.31;5036503;28;20543;-70
2021/05/08 07:42:24;;;;;;;8.47;4.27;;;;;;;15.29;34.25;96828.19;5035783;28;20175;-70
2021/05/08 07:44:50;;;;;;;4.87;3.10;;;;;;;15.29;34.60;96828.19;5034126;28;20286;-70
2021/05/08 07:47:16;;;;;;;2.63;2.43;;;;;;;15.36;34.00;96828.22;5049948;28;20571;-69
2021/05/08 07:49:42;;;;;;;4.50;3.23;;;;;;;15.44;34.40;96825.44;5033812;28;20262;-70
2021/05/08 07:52:08;;;;;;;4.43;2.50;;;;;;;15.47;33.33;96825.06;5038443;28;20661;-71
2021/05/08 07:54:34;;;;;;;8.13;3.03;;;;;;;15.27;33.85;96824.91;5034012;28;20431;-68
2021/05/08 07:57:00;;;;;;;4.33;2.53;;;;;;;15.04;33.83;96825.13;5026620;28;20458;-68
2021/05/08 07:59:25;;;;;;;3.27;2.30;;;;;;;15.48;33.44;96826.69;5049470;28;20565;-69
2021/05/08 08:01:51;;;;;;;5.03;2.80;;;;;;;15.44;33.80;96827.25;5032902;28;20466;-69
2021/05/08 08:04:17;;;;;;;8.50;2.70;;;;;;;16.02;32.92;96832.28;5050376;28;20180;-68
2021/05/08 08:06:46;;;;;;;3.70;2.93;;;;;;;16.25;32.72;96832.00;5035305;28;20203;-69
2021/05/08 08:09:12;;;;;;;5.20;3.20;;;;;;;16.25;33.04;96831.19;5036403;28;20438;-68
2021/05/08 08:11:38;;;;;;;4.80;2.83;;;;;;;16.35;32.86;96831.63;5034261;28;20975;-69
2021/05/08 08:14:04;;;;;;;5.60;3.13;;;;;;;16.41;32.78;96820.25;5035475;28;20961;-69
2021/05/08 08:16:30;;;;;;;5.50;2.60;;;;;;;16.25;33.82;96825.91;5017641;28;20230;-71
2021/05/08 08:18:56;;;;;;;3.10;2.40;;;;;;;16.56;32.48;96833.31;5034233;28;20419;-71
2021/05/08 08:21:22;;;;;;;3.40;2.37;;;;;;;16.73;32.59;96835.59;5034449;28;20222;-70
2021/05/08 08:23:48;;;;;;;4.03;2.57;;;;;;;17.18;32.32;96827.13;5034480;28;20473;-69
2021/05/08 08:26:14;;;;;;;3.50;2.40;;;;;;;16.93;31.75;96829.53;5028269;28;20826;-68
2021/05/08 08:28:39;;;;;;;2.60;2.30;;;;;;;17.14;31.02;96821.41;5034594;28;20687;-70
2021/05/08 08:31:05;;;;;;;3.30;3.00;;;;;;;17.15;31.51;96824.88;5035385;28;20183;-70
2021/05/08 08:33:31;;;;;;;2.97;2.10;;;;;;;17.04;30.96;96829.75;5034720;28;20314;-69
2021/05/08 08:35:56;;;;;;;7.00;3.40;;;;;;;17.72;30.71;96835.81;5033424;28;20211;-69
2021/05/08 08:38:22;;;;;;;2.40;2.20;;;;;;;18.11;29.13;96822.72;5033552;28;20203;-70
2021/05/08 08:40:48;;;;;;;2.57;1.90;;;;;;;17.85;29.20;96820.91;5033685;28;20234;-70
2021/05/08 08:43:14;;;;;;;3.93;1.80;;;;;;;17.59;28.76;96820.78;5034297;28;20555;-70
2021/05/08 08:45:41;;;;;;;3.17;2.10;;;;;;;16.41;29.85;96828.19;5034202;28;20465;-70
2021/05/08 08:48:07;;;;;;;2.30;1.63;;;;;;;16.66;28.81;96822.34;5034672;28;20450;-70
2021/05/08 08:50:36;;;;;;;2.07;1.53;;;;;;;17.36;28.36;96826.50;5043873;28;20478;-71
2021/05/08 08:53:09;;;;;;;2.77;1.90;;;;;;;17.06;28.83;96831.38;5042888;28;20415;-70
2021/05/08 08:55:35;;;;;;;2.40;2.00;;;;;;;17.73;28.70;96820.75;5036858;28;20465;-70
2021/05/08 08:58:05;;;;;;;2.20;2.00;;;;;;;17.91;28.12;96810.28;5038495;28;20426;-69
2021/05/08 09:00:31;;;;;;;3.17;2.00;;;;;;;17.09;29.89;96809.81;5051005;28;20454;-69
2021/05/08 09:02:57;;;;;;;3.03;1.90;;;;;;;17.74;28.69;96803.84;5036908;28;20513;-71
2021/05/08 09:05:23;;;;;;;2.17;1.70;;;;;;;18.51;27.45;96803.97;5035031;28;20422;-69
2021/05/08 09:07:50;;;;;;;3.83;2.03;;;;;;;18.62;27.73;96802.44;5033002;28;20189;-68
2021/05/08 09:10:27;;;;;;;5.30;2.70;;;;;;;18.68;27.40;96801.63;5032086;28;20874;-70
2021/05/08 09:12:54;;;;;;;4.07;2.10;;;;;;;18.61;27.91;96800.03;5046279;28;20425;-69
2021/05/08 09:15:41;;;;;;;2.40;2.20;;;;;;;18.65;27.64;96786.13;5031139;28;20426;-70
2021/05/08 09:18:10;;;;;;;3.37;1.77;;;;;;;18.85;26.87;96783.31;5024164;28;20422;-71
2021/05/08 09:20:50;;;;;;;2.77;1.90;;;;;;;18.22;28.11;96782.28;5031423;28;20457;-70
2021/05/08 09:23:19;;;;;;;3.03;2.07;;;;;;;18.17;27.82;96790.03;5032780;28;20434;-71
2021/05/08 09:26:14;;;;;;;3.00;2.10;;;;;;;18.57;27.73;96778.41;5031929;28;20904;-70
2021/05/08 09:29:00;;;;;;;3.70;2.07;;;;;;;18.29;27.73;96768.97;4985613;28;21028;-71
2021/05/08 09:31:26;;;;;;;3.03;1.90;;;;;;;18.68;27.84;96766.28;4972953;28;20428;-70
2021/05/08 09:33:53;;;;;;;1.87;1.77;;;;;;;18.60;27.62;96767.34;4958169;28;20867;-74
2021/05/08 09:36:18;;;;;;;1.77;1.53;;;;;;;18.71;26.35;96765.88;4992357;28;20205;-68
2021/05/08 09:38:45;;;;;;;3.20;2.40;;;;;;;19.00;26.48;96758.34;4990719;28;20898;-69
2021/05/08 09:41:13;;;;;;;3.93;1.50;;;;;;;19.37;26.70;96757.56;4988171;28;20213;-69
2021/05/08 09:43:39;;;;;;;2.13;1.87;;;;;;;19.21;26.43;96764.28;4990213;28;20813;-71
2021/05/08 09:46:06;;;;;;;1.80;1.70;;;;;;;18.81;26.35;96768.03;4958103;28;20808;-70
2021/05/08 09:48:33;;;;;;;3.10;2.20;;;;;;;19.01;26.38;96760.75;4990300;28;20436;-72
2021/05/08 09:51:24;;;;;;;2.40;1.40;;;;;;;18.77;26.83;96758.88;4972589;28;20424;-69
2021/05/08 09:53:52;;;;;;;1.63;1.53;;;;;;;19.12;26.13;96753.94;4974520;28;20570;-70
2021/05/08 09:56:34;;;;;;;2.20;1.43;;;;;;;18.78;26.61;96757.84;4990118;28;20542;-69
2021/05/08 09:59:26;;;;;;;2.33;1.33;;;;;;;18.69;26.06;96757.28;4981966;28;20424;-70
2021/05/08 10:02:04;;;;;;;4.33;2.97;;;;;;;18.61;25.67;96752.25;4973787;28;20479;-71
2021/05/08 10:04:30;;;;;;;2.03;1.40;;;;;;;19.17;25.14;96754.06;4985640;28;20442;-68
2021/05/08 10:07:05;;;;;;;3.03;2.20;;;;;;;19.19;24.64;96743.25;5031051;28;21015;-70
2021/05/08 10:09:31;;;;;;;1.60;1.30;;;;;;;19.34;24.18;96740.25;5031681;28;20325;-70
2021/05/08 10:11:59;;;;;;;7.10;1.70;;;;;;;19.53;24.67;96738.41;5031835;28;20850;-69
2021/05/08 10:14:25;;;;;;;1.50;1.40;;;;;;;19.46;23.98;96732.38;5031070;28;20281;-70
2021/05/08 10:16:51;;;;;;;2.90;2.10;;;;;;;19.41;24.29;96735.66;5031308;28;20446;-69
2021/05/08 10:19:17;;;;;;;2.90;1.43;;;;;;;19.88;23.66;96729.84;5030934;28;20660;-70
2021/05/08 10:21:44;;;;;;;3.63;1.33;;;;;;;19.71;23.99;96731.47;5029470;28;20525;-71
2021/05/08 10:24:09;;;;;;;3.20;2.90;;;;;;;18.92;24.54;96726.69;5046340;28;20435;-70
2021/05/08 10:26:35;;;;;;;1.87;1.77;;;;;;;19.40;24.54;96730.56;5030402;28;21148;-73
2021/05/08 10:29:01;;;;;;;2.30;1.80;;;;;;;19.78;24.08;96721.56;5015290;28;20184;-69
2021/05/08 10:31:27;;;;;;;1.57;1.47;;;;;;;19.67;23.72;96723.13;5031758;28;20948;-69
2021/05/08 10:33:53;;;;;;;2.10;1.60;;;;;;;20.59;22.99;96708.00;5032391;28;20184;-69
2021/05/08 10:36:44;;;;;;;1.63;1.40;;;;;;;20.68;22.25;96709.31;5033080;28;20463;-71
2021/05/08 10:39:10;;;;;;;2.00;1.70;;;;;;;20.79;22.35;96706.94;5032940;28;20191;-70
2021/05/08 10:42:02;;;;;;;2.03;1.50;;;;;;;20.95;22.68;96700.91;5032709;28;20509;-72
2021/05/08 10:44:44;;;;;;;1.67;1.30;;;;;;;20.64;22.91;96705.50;5031019;28;20286;-71
2021/05/08 10:47:13;;;;;;;4.53;1.40;;;;;;;20.38;23.46;96698.72;5028127;28;20979;-69
2021/05/08 10:49:40;;;;;;;1.87;1.27;;;;;;;21.11;22.87;96699.41;5035717;28;20410;-70
2021/05/08 10:52:06;;;;;;;2.43;1.50;;;;;;;21.80;22.12;96689.91;5051046;28;20426;-69
2021/05/08 10:54:44;;;;;;;4.43;1.97;;;;;;;21.93;21.42;96689.66;5044078;28;20439;-69
2021/05/08 10:57:15;;;;;;;2.67;1.50;;;;;;;22.30;21.68;96679.66;5029692;28;20441;-71
2021/05/08 11:00:08;;;;;;;1.73;1.47;;;;;;;22.32;21.20;96680.19;5035878;28;20462;-71
2021/05/08 11:02:45;;;;;;;5.70;1.90;;;;;;;21.58;22.35;96673.75;5026236;28;20536;-70
2021/05/08 11:05:23;;;;;;;2.87;2.57;;;;;;;21.28;21.67;96677.38;5030854;28;20988;-69
2021/05/08 11:07:49;;;;;;;4.57;2.30;;;;;;;21.66;20.77;96678.72;5034210;28;20430;-72
2021/05/08 11:10:33;;;;;;;3.80;1.67;;;;;;;22.45;20.09;96660.44;5034522;28;20729;-69
2021/05/08 11:13:12;;;;;;;2.40;1.53;;;;;;;21.40;21.87;96670.19;5034487;28;20926;-70
2021/05/08 11:16:19;;;;;;;3.30;1.83;;;;;;;20.89;23.07;96667.22;5035337;28;20541;-70
2021/05/08 11:18:46;;;;;;;1.80;1.60;;;;;;;20.21;23.76;96663.97;4996854;28;20446;-69
2021/05/08 11:21:12;;;;;;;3.00;1.93;;;;;;;20.82;23.60;96669.19;4994964;28;20463;-70
2021/05/08 11:23:55;;;;;;;2.30;1.73;;;;;;;20.82;23.87;96678.00;5012882;28;20431;-71
2021/05/08 11:26:20;;;;;;;3.13;1.57;;;;;;;21.73;23.11;96667.94;5005040;28;20204;-69
2021/05/08 11:29:01;;;;;;;3.73;2.13;;;;;;;21.05;23.99;96656.88;5004376;28;20433;-71
2021/05/08 11:31:50;;;;;;;2.43;2.00;;;;;;;20.18;24.92;96670.56;5009292;28;20189;-71
2021/05/08 11:34:30;;;;;;;2.93;1.60;;;;;;;20.31;25.33;96664.22;5013283;28;20435;-70
2021/05/08 11:37:07;;;;;;;2.07;1.97;;;;;;;19.46;25.63;96656.09;5005567;28;20439;-71
2021/05/08 11:39:32;;;;;;;1.60;1.50;;;;;;;20.24;25.03;96647.56;5013483;28;20486;-70